createdAt,value
2019-01-18T00:01:45.696Z,88.94
2019-01-18T00:07:50.270Z,88.53
2019-01-18T00:13:54.915Z,87.22
2019-01-18T00:19:59.552Z,86.91
2019-01-18T00:26:04.281Z,86.56
2019-01-18T00:32:09.123Z,86.10
2019-01-18T00:38:13.771Z,85.48
2019-01-18T00:44:18.347Z,85.50
2019-01-18T00:50:23.213Z,84.99
2019-01-18T00:56:28.516Z,84.19
2019-01-18T01:02:33.226Z,83.93
2019-01-18T01:08:37.885Z,83.88
2019-01-18T01:14:42.644Z,83.53
2019-01-18T01:20:47.343Z,84.21
2019-01-18T01:26:52.067Z,82.86
2019-01-18T01:32:56.820Z,87.33
2019-01-18T01:39:01.386Z,90.18
2019-01-18T01:45:09.907Z,88.74
2019-01-18T01:51:15.675Z,88.51
2019-01-18T01:57:21.942Z,86.46
2019-01-18T02:03:27.470Z,85.98
2019-01-18T02:09:33.257Z,85.92
2019-01-18T02:15:37.844Z,84.00
2019-01-18T02:21:44.033Z,82.42
2019-01-18T02:27:48.766Z,82.72
2019-01-18T02:33:54.895Z,81.54
2019-01-18T02:40:00.789Z,81.04
2019-01-18T02:46:08.410Z,80.54
2019-01-18T02:52:13.269Z,79.60
2019-01-18T02:58:18.310Z,77.08
2019-01-18T03:04:24.512Z,77.77
2019-01-18T03:10:31.354Z,76.72
2019-01-18T03:16:36.174Z,76.58
2019-01-18T03:22:41.404Z,77.90
2019-01-18T03:28:46.183Z,78.33
2019-01-18T03:34:50.856Z,77.84
2019-01-18T03:40:55.648Z,77.57
2019-01-18T03:47:00.296Z,78.29
2019-01-18T03:53:05.185Z,79.27
2019-01-18T03:59:10.218Z,79.70
2019-01-18T04:05:17.789Z,79.96
2019-01-18T04:11:23.581Z,80.18
2019-01-18T04:17:28.324Z,80.01
2019-01-18T04:23:32.966Z,80.53
2019-01-18T04:29:37.643Z,81.23
2019-01-18T04:35:42.805Z,81.59
2019-01-18T04:41:47.898Z,81.92
2019-01-18T04:47:52.676Z,81.95
2019-01-18T04:54:01.065Z,82.46
2019-01-18T05:00:13.203Z,82.85
2019-01-18T05:06:17.757Z,83.23
2019-01-18T05:12:22.503Z,83.54
2019-01-18T05:18:27.057Z,84.06
2019-01-18T05:24:31.671Z,84.01
2019-01-18T05:30:36.268Z,84.44
2019-01-18T05:36:40.888Z,84.49
2019-01-18T05:42:46.866Z,84.31
2019-01-18T05:48:51.793Z,84.15
2019-01-18T05:54:56.372Z,84.40
2019-01-18T06:01:02.546Z,84.77
2019-01-18T06:07:07.087Z,84.84
2019-01-18T06:13:11.811Z,85.10
2019-01-18T06:19:16.353Z,85.58
2019-01-18T06:25:20.969Z,85.52
2019-01-18T06:31:25.898Z,85.65
2019-01-18T06:37:30.448Z,85.84
2019-01-18T06:43:34.990Z,85.91
2019-01-18T06:49:39.533Z,86.30
2019-01-18T06:55:45.408Z,86.87
2019-01-18T07:01:50.055Z,86.73
2019-01-18T07:07:55.146Z,86.44
2019-01-18T07:13:59.696Z,85.49
2019-01-18T07:20:08.314Z,85.81
2019-01-18T07:26:12.881Z,85.71
2019-01-18T07:32:17.420Z,85.48
2019-01-18T07:38:22.970Z,86.04
2019-01-18T07:44:27.844Z,86.44
2019-01-18T07:50:32.439Z,86.41
2019-01-18T07:56:37.002Z,87.24
2019-01-18T08:02:41.632Z,87.53
2019-01-18T08:08:46.991Z,88.57
2019-01-18T08:14:51.527Z,88.06
2019-01-18T08:20:56.079Z,87.92
2019-01-18T08:27:00.697Z,87.39
2019-01-18T08:33:05.377Z,86.98
2019-01-18T08:39:09.978Z,87.02
2019-01-18T08:45:30.617Z,87.10
2019-01-18T08:51:35.160Z,87.49
2019-01-18T08:57:40.044Z,86.63
2019-01-18T09:03:44.595Z,86.59
2019-01-18T09:09:49.138Z,86.29
2019-01-18T09:15:54.484Z,86.48
2019-01-18T09:21:59.109Z,86.25
2019-01-18T09:28:05.658Z,85.61
2019-01-18T09:34:10.686Z,85.92
2019-01-18T09:40:19.591Z,85.71
2019-01-18T09:46:24.301Z,85.11
2019-01-18T09:52:28.919Z,85.10
2019-01-18T09:58:33.702Z,84.63
2019-01-18T10:04:38.448Z,83.63
2019-01-18T10:10:43.965Z,83.23
2019-01-18T10:16:48.591Z,82.95
2019-01-18T10:22:53.295Z,81.98
2019-01-18T10:28:57.925Z,81.05
2019-01-18T10:35:02.537Z,81.54
2019-01-18T10:41:07.167Z,80.79
2019-01-18T10:47:11.852Z,80.54
2019-01-18T10:53:16.487Z,80.52
2019-01-18T10:59:22.971Z,79.43
2019-01-18T11:05:27.803Z,80.58
2019-01-18T11:11:32.466Z,79.80
2019-01-18T11:17:37.050Z,79.06
2019-01-18T11:23:41.793Z,76.75
2019-01-18T11:29:47.950Z,75.67
2019-01-18T11:35:52.750Z,75.30
2019-01-18T11:41:57.459Z,74.10
2019-01-18T11:48:03.379Z,72.63
2019-01-18T11:54:08.083Z,71.98
2019-01-18T12:00:19.932Z,72.65
2019-01-18T12:06:24.585Z,69.67
2019-01-18T12:12:29.503Z,68.54
2019-01-18T12:18:34.147Z,68.10
2019-01-18T12:24:38.895Z,68.85
2019-01-18T12:30:47.119Z,67.77
2019-01-18T12:36:58.588Z,67.45
2019-01-18T12:43:00.916Z,67.10
2019-01-18T12:49:05.796Z,66.69
2019-01-18T12:55:10.712Z,66.57
2019-01-18T13:01:15.404Z,67.24
2019-01-18T13:07:20.405Z,67.93
2019-01-18T13:13:24.952Z,68.19
2019-01-18T13:19:29.492Z,67.15
2019-01-18T13:25:34.108Z,66.73
2019-01-18T13:31:38.801Z,66.47
2019-01-18T13:37:43.461Z,68.27
2019-01-18T13:43:48.091Z,69.64
2019-01-18T13:49:54.556Z,69.79
2019-01-18T13:55:59.109Z,70.55
2019-01-18T14:02:03.780Z,70.86
2019-01-18T14:08:08.326Z,71.19
2019-01-18T14:14:14.080Z,71.57
2019-01-18T14:20:24.639Z,71.23
2019-01-18T14:26:29.313Z,70.91
2019-01-18T14:32:33.923Z,71.36
2019-01-18T14:38:38.461Z,71.94
2019-01-18T14:44:42.999Z,72.43
2019-01-18T14:50:47.607Z,72.50
2019-01-18T14:56:52.138Z,73.44
2019-01-18T15:03:02.446Z,73.60
2019-01-18T15:09:09.984Z,73.91
2019-01-18T15:15:16.226Z,73.17
2019-01-18T15:21:20.785Z,73.37
2019-01-18T15:27:25.317Z,73.36
2019-01-18T15:33:31.092Z,74.08
2019-01-18T15:39:35.623Z,74.96
2019-01-18T15:45:40.836Z,75.10
2019-01-18T15:51:45.370Z,76.21
2019-01-18T15:57:50.163Z,76.88
2019-01-18T16:03:54.780Z,78.95
2019-01-18T16:09:59.336Z,78.94
2019-01-18T16:16:08.393Z,80.32
2019-01-18T16:22:13.025Z,79.99
2019-01-18T16:28:17.566Z,80.80
2019-01-18T16:34:22.103Z,81.00
2019-01-18T16:40:35.246Z,81.83
2019-01-18T16:46:39.803Z,82.41
2019-01-18T16:52:44.718Z,82.48
2019-01-18T16:58:49.603Z,83.05
2019-01-18T17:04:54.504Z,83.93
2019-01-18T17:10:59.044Z,82.94
2019-01-18T17:17:03.593Z,82.27
2019-01-18T17:23:08.290Z,83.04
2019-01-18T17:29:12.853Z,82.82
2019-01-18T17:35:29.129Z,83.70
2019-01-18T17:41:59.025Z,83.80
2019-01-18T17:48:10.800Z,83.23
2019-01-18T17:54:28.830Z,83.16
2019-01-18T18:00:40.584Z,83.13
2019-01-18T18:07:01.556Z,83.21
2019-01-18T18:13:30.478Z,82.77
2019-01-18T18:20:07.820Z,82.80
2019-01-18T18:26:46.686Z,82.87
2019-01-18T18:33:10.947Z,83.00
2019-01-18T18:39:20.201Z,83.05
2019-01-18T18:45:40.986Z,83.15
2019-01-18T18:52:30.780Z,83.49
2019-01-18T18:58:56.723Z,83.70
2019-01-18T19:05:20.408Z,82.87
2019-01-18T19:11:35.591Z,83.08
2019-01-18T19:18:08.543Z,82.93
2019-01-18T19:24:56.894Z,82.86
2019-01-18T19:31:30.674Z,82.96
2019-01-18T19:37:55.869Z,82.82
2019-01-18T19:44:05.132Z,81.47
2019-01-18T19:50:33.508Z,81.76
2019-01-18T19:56:51.550Z,82.31
2019-01-18T20:03:16.997Z,82.58
2019-01-18T20:09:33.665Z,83.15
2019-01-18T20:15:54.654Z,84.89
2019-01-18T20:22:03.981Z,85.25
2019-01-18T20:28:30.832Z,85.04
2019-01-18T20:34:54.115Z,85.00
2019-01-18T20:41:28.637Z,85.57
2019-01-18T20:48:13.694Z,84.77
2019-01-18T20:54:49.797Z,85.53
2019-01-18T21:01:01.867Z,86.34
2019-01-18T21:07:25.670Z,86.34
2019-01-18T21:13:52.718Z,86.16
2019-01-18T21:20:04.785Z,85.95
2019-01-18T21:26:20.818Z,86.50
2019-01-18T21:32:55.786Z,86.27
2019-01-18T21:39:07.867Z,86.76
2019-01-18T21:45:22.649Z,86.27
2019-01-18T21:52:00.094Z,86.25
2019-01-18T21:58:14.939Z,85.64
2019-01-18T22:04:28.979Z,86.00
2019-01-18T22:10:44.058Z,85.81
2019-01-18T22:17:18.548Z,85.50
2019-01-18T22:23:36.620Z,85.42
2019-01-18T22:29:58.913Z,85.55
2019-01-18T22:36:42.482Z,85.23
2019-01-18T22:43:09.524Z,85.13
2019-01-18T22:49:54.381Z,85.30
2019-01-18T22:56:39.387Z,85.06
2019-01-18T23:02:54.068Z,85.10
2019-01-18T23:09:21.238Z,85.31
2019-01-18T23:16:19.742Z,85.68
2019-01-18T23:22:36.944Z,85.69
2019-01-18T23:29:11.503Z,85.37
2019-01-18T23:35:41.151Z,85.05
2019-01-18T23:42:21.538Z,85.15
2019-01-18T23:48:42.983Z,85.02
2019-01-18T23:55:01.529Z,85.56
